sensor_id;sensor_type;location;lat;lon;timestamp;P1;durP1;ratioP1;P2;durP2;ratioP2
22929;SDS011;11630;42.660;23.292;2023-02-27T00:02:20;17.83;;;8.23;;
22929;SDS011;11630;42.660;23.292;2023-02-27T00:04:50;26.77;;;9.23;;
22929;SDS011;11630;42.660;23.292;2023-02-27T00:07:21;25.73;;;9.83;;
22929;SDS011;11630;42.660;23.292;2023-02-27T00:09:52;24.20;;;9.13;;
22929;SDS011;11630;42.660;23.292;2023-02-27T00:12:23;19.27;;;8.83;;
22929;SDS011;11630;42.660;23.292;2023-02-27T00:14:54;41.13;;;9.17;;
22929;SDS011;11630;42.660;23.292;2023-02-27T00:17:25;25.23;;;9.43;;
22929;SDS011;11630;42.660;23.292;2023-02-27T00:19:56;22.07;;;9.10;;
22929;SDS011;11630;42.660;23.292;2023-02-27T00:22:27;25.47;;;9.37;;
22929;SDS011;11630;42.660;23.292;2023-02-27T00:24:58;31.57;;;9.50;;
22929;SDS011;11630;42.660;23.292;2023-02-27T00:27:29;23.43;;;9.93;;
22929;SDS011;11630;42.660;23.292;2023-02-27T00:30:00;29.67;;;11.47;;
22929;SDS011;11630;42.660;23.292;2023-02-27T00:32:35;23.57;;;9.53;;
22929;SDS011;11630;42.660;23.292;2023-02-27T00:35:07;21.90;;;8.60;;
22929;SDS011;11630;42.660;23.292;2023-02-27T00:37:38;33.73;;;9.90;;
22929;SDS011;11630;42.660;23.292;2023-02-27T00:40:10;21.70;;;9.93;;
22929;SDS011;11630;42.660;23.292;2023-02-27T00:42:40;28.23;;;9.83;;
22929;SDS011;11630;42.660;23.292;2023-02-27T00:45:11;30.13;;;6.67;;
22929;SDS011;11630;42.660;23.292;2023-02-27T00:47:41;25.43;;;7.17;;
22929;SDS011;11630;42.660;23.292;2023-02-27T00:50:12;28.03;;;9.60;;
22929;SDS011;11630;42.660;23.292;2023-02-27T00:52:43;34.67;;;5.40;;
22929;SDS011;11630;42.660;23.292;2023-02-27T00:55:13;26.00;;;5.50;;
22929;SDS011;11630;42.660;23.292;2023-02-27T00:57:44;23.33;;;5.17;;
22929;SDS011;11630;42.660;23.292;2023-02-27T01:00:15;20.10;;;5.20;;
22929;SDS011;11630;42.660;23.292;2023-02-27T01:02:46;30.73;;;6.03;;
22929;SDS011;11630;42.660;23.292;2023-02-27T01:05:17;36.67;;;5.03;;
22929;SDS011;11630;42.660;23.292;2023-02-27T01:07:48;23.23;;;4.80;;
22929;SDS011;11630;42.660;23.292;2023-02-27T01:10:20;34.60;;;6.90;;
22929;SDS011;11630;42.660;23.292;2023-02-27T01:12:51;27.27;;;5.87;;
22929;SDS011;11630;42.660;23.292;2023-02-27T01:15:22;23.63;;;5.53;;
22929;SDS011;11630;42.660;23.292;2023-02-27T01:17:53;22.40;;;5.53;;
22929;SDS011;11630;42.660;23.292;2023-02-27T01:20:23;25.77;;;7.27;;
22929;SDS011;11630;42.660;23.292;2023-02-27T01:22:53;32.60;;;7.67;;
22929;SDS011;11630;42.660;23.292;2023-02-27T01:25:24;32.67;;;7.50;;
22929;SDS011;11630;42.660;23.292;2023-02-27T01:27:55;24.07;;;7.23;;
22929;SDS011;11630;42.660;23.292;2023-02-27T01:30:26;27.10;;;7.13;;
22929;SDS011;11630;42.660;23.292;2023-02-27T01:32:56;18.60;;;6.70;;
22929;SDS011;11630;42.660;23.292;2023-02-27T01:35:27;33.53;;;10.00;;
22929;SDS011;11630;42.660;23.292;2023-02-27T01:37:58;41.57;;;9.70;;
22929;SDS011;11630;42.660;23.292;2023-02-27T01:40:29;28.97;;;8.73;;
22929;SDS011;11630;42.660;23.292;2023-02-27T01:43:00;35.53;;;12.27;;
22929;SDS011;11630;42.660;23.292;2023-02-27T01:45:33;26.80;;;10.50;;
22929;SDS011;11630;42.660;23.292;2023-02-27T01:48:12;20.47;;;10.03;;
22929;SDS011;11630;42.660;23.292;2023-02-27T01:50:52;28.43;;;9.10;;
22929;SDS011;11630;42.660;23.292;2023-02-27T01:53:27;30.60;;;9.47;;
22929;SDS011;11630;42.660;23.292;2023-02-27T01:56:14;32.07;;;9.93;;
22929;SDS011;11630;42.660;23.292;2023-02-27T01:58:45;24.03;;;9.13;;
22929;SDS011;11630;42.660;23.292;2023-02-27T02:01:19;27.37;;;8.83;;
22929;SDS011;11630;42.660;23.292;2023-02-27T02:03:59;26.07;;;9.57;;
22929;SDS011;11630;42.660;23.292;2023-02-27T02:06:36;34.00;;;10.13;;
22929;SDS011;11630;42.660;23.292;2023-02-27T02:09:07;27.27;;;9.93;;
22929;SDS011;11630;42.660;23.292;2023-02-27T02:11:39;35.07;;;9.90;;
22929;SDS011;11630;42.660;23.292;2023-02-27T02:14:11;23.80;;;9.43;;
22929;SDS011;11630;42.660;23.292;2023-02-27T02:17:00;19.77;;;9.40;;
22929;SDS011;11630;42.660;23.292;2023-02-27T02:19:49;21.17;;;7.97;;
22929;SDS011;11630;42.660;23.292;2023-02-27T02:28:53;5.97;;;1.50;;
22929;SDS011;11630;42.660;23.292;2023-02-27T02:43:13;3.57;;;1.73;;
22929;SDS011;11630;42.660;23.292;2023-02-27T02:46:00;2.13;;;1.30;;
22929;SDS011;11630;42.660;23.292;2023-02-27T02:48:48;4.43;;;1.33;;
22929;SDS011;11630;42.660;23.292;2023-02-27T02:51:21;1.00;;;1.00;;
22929;SDS011;11630;42.660;23.292;2023-02-27T02:54:05;2.67;;;1.27;;
22929;SDS011;11630;42.660;23.292;2023-02-27T02:57:04;4.07;;;1.50;;
22929;SDS011;11630;42.660;23.292;2023-02-27T02:59:43;2.17;;;1.20;;
22929;SDS011;11630;42.660;23.292;2023-02-27T03:02:27;3.70;;;1.63;;
22929;SDS011;11630;42.660;23.292;2023-02-27T03:04:59;4.20;;;1.90;;
22929;SDS011;11630;42.660;23.292;2023-02-27T03:07:38;8.50;;;2.50;;
22929;SDS011;11630;42.660;23.292;2023-02-27T03:10:16;9.93;;;3.67;;
22929;SDS011;11630;42.660;23.292;2023-02-27T03:12:51;5.00;;;2.70;;
22929;SDS011;11630;42.660;23.292;2023-02-27T03:15:24;4.93;;;3.07;;
22929;SDS011;11630;42.660;23.292;2023-02-27T03:18:07;5.20;;;2.67;;
22929;SDS011;11630;42.660;23.292;2023-02-27T03:20:38;8.33;;;3.37;;
22929;SDS011;11630;42.660;23.292;2023-02-27T03:23:15;5.93;;;3.13;;
22929;SDS011;11630;42.660;23.292;2023-02-27T03:25:46;7.90;;;4.83;;
22929;SDS011;11630;42.660;23.292;2023-02-27T03:28:20;10.57;;;5.50;;
22929;SDS011;11630;42.660;23.292;2023-02-27T03:30:59;7.23;;;5.30;;
22929;SDS011;11630;42.660;23.292;2023-02-27T03:36:08;12.33;;;6.40;;
22929;SDS011;11630;42.660;23.292;2023-02-27T03:38:39;11.77;;;6.37;;
22929;SDS011;11630;42.660;23.292;2023-02-27T03:41:26;9.40;;;6.90;;
22929;SDS011;11630;42.660;23.292;2023-02-27T03:44:20;9.83;;;5.83;;
22929;SDS011;11630;42.660;23.292;2023-02-27T03:46:56;6.83;;;5.43;;
22929;SDS011;11630;42.660;23.292;2023-02-27T03:49:28;7.10;;;5.80;;
22929;SDS011;11630;42.660;23.292;2023-02-27T03:51:59;7.47;;;5.67;;
22929;SDS011;11630;42.660;23.292;2023-02-27T03:54:35;7.37;;;5.73;;
22929;SDS011;11630;42.660;23.292;2023-02-27T03:57:03;8.03;;;5.33;;
22929;SDS011;11630;42.660;23.292;2023-02-27T03:59:35;7.77;;;5.40;;
22929;SDS011;11630;42.660;23.292;2023-02-27T04:02:07;9.97;;;4.70;;
22929;SDS011;11630;42.660;23.292;2023-02-27T04:04:39;8.77;;;5.40;;
22929;SDS011;11630;42.660;23.292;2023-02-27T04:07:20;7.07;;;4.70;;
22929;SDS011;11630;42.660;23.292;2023-02-27T04:13:06;7.57;;;5.67;;
22929;SDS011;11630;42.660;23.292;2023-02-27T04:18:53;8.43;;;5.33;;
22929;SDS011;11630;42.660;23.292;2023-02-27T04:24:15;8.60;;;5.23;;
22929;SDS011;11630;42.660;23.292;2023-02-27T04:32:54;9.67;;;6.50;;
22929;SDS011;11630;42.660;23.292;2023-02-27T04:35:37;10.63;;;7.03;;
22929;SDS011;11630;42.660;23.292;2023-02-27T04:38:15;13.10;;;6.67;;
22929;SDS011;11630;42.660;23.292;2023-02-27T04:40:53;8.60;;;6.57;;
22929;SDS011;11630;42.660;23.292;2023-02-27T04:43:24;7.73;;;5.20;;
22929;SDS011;11630;42.660;23.292;2023-02-27T04:45:58;4.97;;;4.07;;
22929;SDS011;11630;42.660;23.292;2023-02-27T04:48:36;8.53;;;5.43;;
22929;SDS011;11630;42.660;23.292;2023-02-27T04:51:14;10.13;;;5.97;;
22929;SDS011;11630;42.660;23.292;2023-02-27T04:53:46;7.53;;;6.00;;
22929;SDS011;11630;42.660;23.292;2023-02-27T04:56:27;10.23;;;6.33;;
22929;SDS011;11630;42.660;23.292;2023-02-27T04:59:02;10.27;;;6.70;;
22929;SDS011;11630;42.660;23.292;2023-02-27T05:01:38;13.47;;;6.53;;
22929;SDS011;11630;42.660;23.292;2023-02-27T05:04:11;8.70;;;6.23;;
22929;SDS011;11630;42.660;23.292;2023-02-27T05:06:44;9.97;;;6.40;;
22929;SDS011;11630;42.660;23.292;2023-02-27T05:14:46;9.37;;;7.80;;
22929;SDS011;11630;42.660;23.292;2023-02-27T05:17:21;10.80;;;6.10;;
22929;SDS011;11630;42.660;23.292;2023-02-27T05:19:51;7.23;;;4.97;;
22929;SDS011;11630;42.660;23.292;2023-02-27T05:22:23;6.90;;;4.90;;
22929;SDS011;11630;42.660;23.292;2023-02-27T05:28:02;7.13;;;4.17;;
22929;SDS011;11630;42.660;23.292;2023-02-27T05:30:44;8.23;;;4.67;;
22929;SDS011;11630;42.660;23.292;2023-02-27T05:33:14;5.67;;;4.27;;
22929;SDS011;11630;42.660;23.292;2023-02-27T05:38:22;5.63;;;3.70;;
22929;SDS011;11630;42.660;23.292;2023-02-27T05:41:07;4.37;;;3.80;;
22929;SDS011;11630;42.660;23.292;2023-02-27T05:43:41;5.27;;;4.20;;
22929;SDS011;11630;42.660;23.292;2023-02-27T05:46:19;4.67;;;3.70;;
22929;SDS011;11630;42.660;23.292;2023-02-27T05:48:55;5.30;;;3.60;;
22929;SDS011;11630;42.660;23.292;2023-02-27T05:51:27;3.47;;;3.17;;
22929;SDS011;11630;42.660;23.292;2023-02-27T05:54:00;8.23;;;4.40;;
22929;SDS011;11630;42.660;23.292;2023-02-27T05:56:39;3.87;;;3.50;;
22929;SDS011;11630;42.660;23.292;2023-02-27T05:59:18;4.00;;;3.60;;
22929;SDS011;11630;42.660;23.292;2023-02-27T06:01:48;4.00;;;3.60;;
22929;SDS011;11630;42.660;23.292;2023-02-27T06:04:19;3.23;;;2.93;;
22929;SDS011;11630;42.660;23.292;2023-02-27T06:06:50;8.53;;;3.57;;
22929;SDS011;11630;42.660;23.292;2023-02-27T06:09:22;4.33;;;3.87;;
22929;SDS011;11630;42.660;23.292;2023-02-27T06:11:52;5.53;;;3.87;;
22929;SDS011;11630;42.660;23.292;2023-02-27T06:14:23;4.67;;;3.57;;
22929;SDS011;11630;42.660;23.292;2023-02-27T06:16:53;4.30;;;3.90;;
22929;SDS011;11630;42.660;23.292;2023-02-27T06:19:23;4.77;;;3.70;;
22929;SDS011;11630;42.660;23.292;2023-02-27T06:21:54;4.83;;;3.60;;
22929;SDS011;11630;42.660;23.292;2023-02-27T06:24:25;5.13;;;4.53;;
22929;SDS011;11630;42.660;23.292;2023-02-27T06:26:55;4.77;;;3.87;;
22929;SDS011;11630;42.660;23.292;2023-02-27T06:29:26;7.60;;;4.17;;
22929;SDS011;11630;42.660;23.292;2023-02-27T06:31:56;5.70;;;4.10;;
22929;SDS011;11630;42.660;23.292;2023-02-27T06:34:28;4.60;;;3.80;;
22929;SDS011;11630;42.660;23.292;2023-02-27T06:36:58;5.93;;;4.47;;
22929;SDS011;11630;42.660;23.292;2023-02-27T06:39:31;3.60;;;3.20;;
22929;SDS011;11630;42.660;23.292;2023-02-27T06:42:02;3.93;;;3.63;;
22929;SDS011;11630;42.660;23.292;2023-02-27T06:44:32;4.23;;;3.60;;
22929;SDS011;11630;42.660;23.292;2023-02-27T06:47:03;6.47;;;3.17;;
22929;SDS011;11630;42.660;23.292;2023-02-27T06:49:34;3.80;;;3.40;;
22929;SDS011;11630;42.660;23.292;2023-02-27T06:52:05;4.40;;;3.80;;
22929;SDS011;11630;42.660;23.292;2023-02-27T06:54:36;5.77;;;3.97;;
22929;SDS011;11630;42.660;23.292;2023-02-27T06:57:07;4.00;;;2.97;;
22929;SDS011;11630;42.660;23.292;2023-02-27T06:59:38;4.83;;;3.80;;
22929;SDS011;11630;42.660;23.292;2023-02-27T07:02:09;3.87;;;3.40;;
22929;SDS011;11630;42.660;23.292;2023-02-27T07:04:43;5.50;;;3.90;;
22929;SDS011;11630;42.660;23.292;2023-02-27T07:07:15;5.10;;;4.13;;
22929;SDS011;11630;42.660;23.292;2023-02-27T07:09:44;4.63;;;3.37;;
22929;SDS011;11630;42.660;23.292;2023-02-27T07:12:15;5.30;;;3.83;;
22929;SDS011;11630;42.660;23.292;2023-02-27T07:14:45;5.20;;;4.13;;
22929;SDS011;11630;42.660;23.292;2023-02-27T07:17:16;5.17;;;4.60;;
22929;SDS011;11630;42.660;23.292;2023-02-27T07:19:46;5.10;;;3.90;;
22929;SDS011;11630;42.660;23.292;2023-02-27T07:22:17;5.43;;;3.67;;
22929;SDS011;11630;42.660;23.292;2023-02-27T07:24:47;6.27;;;4.00;;
22929;SDS011;11630;42.660;23.292;2023-02-27T07:27:18;5.70;;;3.60;;
22929;SDS011;11630;42.660;23.292;2023-02-27T07:29:48;5.20;;;4.07;;
22929;SDS011;11630;42.660;23.292;2023-02-27T07:32:19;5.00;;;4.27;;
22929;SDS011;11630;42.660;23.292;2023-02-27T07:34:49;5.10;;;4.10;;
22929;SDS011;11630;42.660;23.292;2023-02-27T07:37:19;6.90;;;4.70;;
22929;SDS011;11630;42.660;23.292;2023-02-27T07:39:53;5.30;;;4.73;;
22929;SDS011;11630;42.660;23.292;2023-02-27T07:42:23;7.97;;;4.57;;
22929;SDS011;11630;42.660;23.292;2023-02-27T07:44:54;6.33;;;4.57;;
22929;SDS011;11630;42.660;23.292;2023-02-27T07:47:25;6.43;;;4.40;;
22929;SDS011;11630;42.660;23.292;2023-02-27T07:49:56;6.20;;;4.83;;
22929;SDS011;11630;42.660;23.292;2023-02-27T07:52:26;5.37;;;4.07;;
22929;SDS011;11630;42.660;23.292;2023-02-27T07:54:57;8.17;;;4.60;;
22929;SDS011;11630;42.660;23.292;2023-02-27T07:57:27;4.77;;;4.07;;
22929;SDS011;11630;42.660;23.292;2023-02-27T07:59:58;6.33;;;4.23;;
22929;SDS011;11630;42.660;23.292;2023-02-27T08:02:29;2.97;;;2.60;;
22929;SDS011;11630;42.660;23.292;2023-02-27T08:05:01;7.60;;;4.20;;
22929;SDS011;11630;42.660;23.292;2023-02-27T08:07:32;8.20;;;4.03;;
22929;SDS011;11630;42.660;23.292;2023-02-27T08:10:06;5.77;;;3.97;;
22929;SDS011;11630;42.660;23.292;2023-02-27T08:12:38;5.70;;;5.10;;
22929;SDS011;11630;42.660;23.292;2023-02-27T08:15:09;3.70;;;3.40;;
22929;SDS011;11630;42.660;23.292;2023-02-27T08:17:40;5.73;;;4.03;;
22929;SDS011;11630;42.660;23.292;2023-02-27T08:20:11;6.70;;;4.27;;
22929;SDS011;11630;42.660;23.292;2023-02-27T08:22:43;5.53;;;3.40;;
22929;SDS011;11630;42.660;23.292;2023-02-27T08:25:13;6.87;;;3.57;;
22929;SDS011;11630;42.660;23.292;2023-02-27T08:27:43;10.57;;;3.57;;
22929;SDS011;11630;42.660;23.292;2023-02-27T08:30:14;4.50;;;3.73;;
22929;SDS011;11630;42.660;23.292;2023-02-27T08:32:46;7.70;;;4.33;;
22929;SDS011;11630;42.660;23.292;2023-02-27T08:35:17;6.43;;;4.27;;
22929;SDS011;11630;42.660;23.292;2023-02-27T08:37:48;4.73;;;3.00;;
22929;SDS011;11630;42.660;23.292;2023-02-27T08:40:19;3.83;;;3.40;;
22929;SDS011;11630;42.660;23.292;2023-02-27T08:42:49;7.17;;;3.60;;
22929;SDS011;11630;42.660;23.292;2023-02-27T08:45:19;3.77;;;3.37;;
22929;SDS011;11630;42.660;23.292;2023-02-27T08:47:49;3.97;;;3.57;;
22929;SDS011;11630;42.660;23.292;2023-02-27T08:50:20;7.33;;;3.87;;
22929;SDS011;11630;42.660;23.292;2023-02-27T08:52:51;3.60;;;3.30;;
22929;SDS011;11630;42.660;23.292;2023-02-27T08:55:22;6.00;;;3.37;;
22929;SDS011;11630;42.660;23.292;2023-02-27T08:57:52;8.50;;;3.50;;
22929;SDS011;11630;42.660;23.292;2023-02-27T09:00:23;4.30;;;3.40;;
22929;SDS011;11630;42.660;23.292;2023-02-27T09:02:54;4.00;;;2.97;;
22929;SDS011;11630;42.660;23.292;2023-02-27T09:05:25;3.43;;;3.13;;
22929;SDS011;11630;42.660;23.292;2023-02-27T09:07:55;4.77;;;3.13;;
22929;SDS011;11630;42.660;23.292;2023-02-27T09:10:26;4.33;;;3.57;;
22929;SDS011;11630;42.660;23.292;2023-02-27T09:12:56;7.80;;;3.03;;
22929;SDS011;11630;42.660;23.292;2023-02-27T09:15:25;6.40;;;3.90;;
22929;SDS011;11630;42.660;23.292;2023-02-27T09:17:55;6.50;;;4.30;;
22929;SDS011;11630;42.660;23.292;2023-02-27T09:20:29;7.53;;;4.77;;
22929;SDS011;11630;42.660;23.292;2023-02-27T09:23:03;7.50;;;4.97;;
22929;SDS011;11630;42.660;23.292;2023-02-27T09:25:34;5.40;;;4.90;;
22929;SDS011;11630;42.660;23.292;2023-02-27T09:28:04;7.17;;;4.77;;
22929;SDS011;11630;42.660;23.292;2023-02-27T09:30:34;4.67;;;4.17;;
22929;SDS011;11630;42.660;23.292;2023-02-27T09:33:04;4.23;;;3.70;;
22929;SDS011;11630;42.660;23.292;2023-02-27T09:35:35;5.33;;;3.90;;
22929;SDS011;11630;42.660;23.292;2023-02-27T09:38:06;10.57;;;6.23;;
22929;SDS011;11630;42.660;23.292;2023-02-27T09:40:39;7.63;;;4.57;;
22929;SDS011;11630;42.660;23.292;2023-02-27T09:43:14;8.67;;;4.93;;
22929;SDS011;11630;42.660;23.292;2023-02-27T09:45:42;6.20;;;4.30;;
22929;SDS011;11630;42.660;23.292;2023-02-27T09:48:20;8.27;;;4.33;;
22929;SDS011;11630;42.660;23.292;2023-02-27T09:50:48;9.47;;;5.07;;
22929;SDS011;11630;42.660;23.292;2023-02-27T09:53:22;4.90;;;4.27;;
22929;SDS011;11630;42.660;23.292;2023-02-27T10:04:39;9.63;;;5.40;;
22929;SDS011;11630;42.660;23.292;2023-02-27T10:06:42;7.07;;;5.43;;
22929;SDS011;11630;42.660;23.292;2023-02-27T10:09:31;6.17;;;4.50;;
22929;SDS011;11630;42.660;23.292;2023-02-27T10:12:24;6.33;;;4.40;;
22929;SDS011;11630;42.660;23.292;2023-02-27T10:17:47;7.60;;;4.97;;
22929;SDS011;11630;42.660;23.292;2023-02-27T10:20:21;8.47;;;5.27;;
22929;SDS011;11630;42.660;23.292;2023-02-27T10:22:51;9.70;;;4.97;;
22929;SDS011;11630;42.660;23.292;2023-02-27T10:25:23;9.87;;;5.70;;
22929;SDS011;11630;42.660;23.292;2023-02-27T10:27:53;30.57;;;7.77;;
22929;SDS011;11630;42.660;23.292;2023-02-27T10:30:25;9.43;;;5.50;;
22929;SDS011;11630;42.660;23.292;2023-02-27T10:33:40;10.77;;;5.53;;
22929;SDS011;11630;42.660;23.292;2023-02-27T10:35:39;6.17;;;5.40;;
22929;SDS011;11630;42.660;23.292;2023-02-27T10:38:18;6.33;;;5.70;;
22929;SDS011;11630;42.660;23.292;2023-02-27T10:40:48;7.43;;;5.47;;
22929;SDS011;11630;42.660;23.292;2023-02-27T10:43:20;10.40;;;6.33;;
22929;SDS011;11630;42.660;23.292;2023-02-27T10:45:51;21.97;;;7.43;;
22929;SDS011;11630;42.660;23.292;2023-02-27T10:48:22;9.20;;;6.13;;
22929;SDS011;11630;42.660;23.292;2023-02-27T10:50:53;9.53;;;5.80;;
22929;SDS011;11630;42.660;23.292;2023-02-27T10:53:25;9.20;;;5.90;;
22929;SDS011;11630;42.660;23.292;2023-02-27T10:55:57;14.60;;;5.80;;
22929;SDS011;11630;42.660;23.292;2023-02-27T10:58:34;8.37;;;5.80;;
22929;SDS011;11630;42.660;23.292;2023-02-27T11:01:10;12.87;;;7.17;;
22929;SDS011;11630;42.660;23.292;2023-02-27T11:03:42;10.03;;;6.53;;
22929;SDS011;11630;42.660;23.292;2023-02-27T11:06:20;32.80;;;10.03;;
22929;SDS011;11630;42.660;23.292;2023-02-27T11:11:49;20.53;;;8.10;;
22929;SDS011;11630;42.660;23.292;2023-02-27T11:14:25;11.70;;;7.23;;
22929;SDS011;11630;42.660;23.292;2023-02-27T11:17:02;11.63;;;6.90;;
22929;SDS011;11630;42.660;23.292;2023-02-27T11:19:33;16.13;;;7.30;;
22929;SDS011;11630;42.660;23.292;2023-02-27T11:22:12;10.53;;;7.67;;
22929;SDS011;11630;42.660;23.292;2023-02-27T11:24:37;14.10;;;7.60;;
22929;SDS011;11630;42.660;23.292;2023-02-27T11:27:19;10.93;;;8.30;;
22929;SDS011;11630;42.660;23.292;2023-02-27T11:29:59;14.47;;;7.97;;
22929;SDS011;11630;42.660;23.292;2023-02-27T11:32:34;12.70;;;7.83;;
22929;SDS011;11630;42.660;23.292;2023-02-27T11:35:25;10.90;;;8.57;;
22929;SDS011;11630;42.660;23.292;2023-02-27T11:38:05;19.07;;;8.53;;
22929;SDS011;11630;42.660;23.292;2023-02-27T11:40:38;14.63;;;9.67;;
22929;SDS011;11630;42.660;23.292;2023-02-27T11:43:18;11.33;;;7.50;;
22929;SDS011;11630;42.660;23.292;2023-02-27T11:45:50;12.10;;;7.83;;
22929;SDS011;11630;42.660;23.292;2023-02-27T11:48:26;13.40;;;8.27;;
22929;SDS011;11630;42.660;23.292;2023-02-27T11:51:01;81.27;;;16.77;;
22929;SDS011;11630;42.660;23.292;2023-02-27T11:53:52;35.00;;;10.80;;
22929;SDS011;11630;42.660;23.292;2023-02-27T11:56:29;9.17;;;8.17;;
22929;SDS011;11630;42.660;23.292;2023-02-27T12:01:37;11.30;;;8.40;;
22929;SDS011;11630;42.660;23.292;2023-02-27T12:04:16;13.80;;;9.33;;
22929;SDS011;11630;42.660;23.292;2023-02-27T12:09:44;12.93;;;8.20;;
22929;SDS011;11630;42.660;23.292;2023-02-27T12:12:26;12.13;;;8.50;;
22929;SDS011;11630;42.660;23.292;2023-02-27T12:15:04;16.70;;;8.93;;
22929;SDS011;11630;42.660;23.292;2023-02-27T12:17:37;12.47;;;9.17;;
22929;SDS011;11630;42.660;23.292;2023-02-27T12:20:26;15.00;;;8.80;;
22929;SDS011;11630;42.660;23.292;2023-02-27T12:22:56;16.10;;;10.33;;
22929;SDS011;11630;42.660;23.292;2023-02-27T12:25:34;18.20;;;9.50;;
22929;SDS011;11630;42.660;23.292;2023-02-27T12:31:07;18.60;;;9.30;;
22929;SDS011;11630;42.660;23.292;2023-02-27T12:34:14;12.40;;;9.17;;
22929;SDS011;11630;42.660;23.292;2023-02-27T12:36:37;11.20;;;8.03;;
22929;SDS011;11630;42.660;23.292;2023-02-27T12:39:20;13.63;;;8.87;;
22929;SDS011;11630;42.660;23.292;2023-02-27T12:47:00;12.83;;;9.23;;
22929;SDS011;11630;42.660;23.292;2023-02-27T12:50:02;12.43;;;8.83;;
22929;SDS011;11630;42.660;23.292;2023-02-27T13:00:59;16.20;;;9.30;;
22929;SDS011;11630;42.660;23.292;2023-02-27T13:03:34;13.20;;;8.47;;
22929;SDS011;11630;42.660;23.292;2023-02-27T13:17:14;14.37;;;9.40;;
22929;SDS011;11630;42.660;23.292;2023-02-27T13:20:00;14.83;;;9.40;;
22929;SDS011;11630;42.660;23.292;2023-02-27T13:22:42;18.20;;;8.83;;
22929;SDS011;11630;42.660;23.292;2023-02-27T13:25:28;23.63;;;8.87;;
22929;SDS011;11630;42.660;23.292;2023-02-27T13:28:04;13.37;;;7.70;;
22929;SDS011;11630;42.660;23.292;2023-02-27T13:30:39;15.10;;;7.10;;
22929;SDS011;11630;42.660;23.292;2023-02-27T13:33:15;20.20;;;7.60;;
22929;SDS011;11630;42.660;23.292;2023-02-27T13:38:45;10.67;;;8.00;;
22929;SDS011;11630;42.660;23.292;2023-02-27T13:43:57;9.30;;;6.37;;
22929;SDS011;11630;42.660;23.292;2023-02-27T13:46:29;8.33;;;6.47;;
22929;SDS011;11630;42.660;23.292;2023-02-27T13:51:44;11.47;;;7.43;;
22929;SDS011;11630;42.660;23.292;2023-02-27T13:56:48;9.70;;;7.07;;
22929;SDS011;11630;42.660;23.292;2023-02-27T13:59:31;14.43;;;6.93;;
22929;SDS011;11630;42.660;23.292;2023-02-27T14:07:17;12.37;;;7.97;;
22929;SDS011;11630;42.660;23.292;2023-02-27T14:09:49;12.10;;;8.03;;
22929;SDS011;11630;42.660;23.292;2023-02-27T14:12:40;15.00;;;8.63;;
22929;SDS011;11630;42.660;23.292;2023-02-27T14:17:56;11.10;;;6.80;;
22929;SDS011;11630;42.660;23.292;2023-02-27T14:23:26;11.10;;;7.63;;
22929;SDS011;11630;42.660;23.292;2023-02-27T14:25:46;11.27;;;7.87;;
22929;SDS011;11630;42.660;23.292;2023-02-27T14:30:59;11.63;;;7.13;;
22929;SDS011;11630;42.660;23.292;2023-02-27T14:36:22;12.67;;;7.20;;
22929;SDS011;11630;42.660;23.292;2023-02-27T14:38:54;11.07;;;7.23;;
22929;SDS011;11630;42.660;23.292;2023-02-27T14:44:18;11.37;;;6.73;;
22929;SDS011;11630;42.660;23.292;2023-02-27T14:46:54;12.93;;;7.80;;
22929;SDS011;11630;42.660;23.292;2023-02-27T14:49:27;14.17;;;9.20;;
22929;SDS011;11630;42.660;23.292;2023-02-27T14:55:07;10.13;;;7.57;;
22929;SDS011;11630;42.660;23.292;2023-02-27T15:00:41;11.83;;;7.43;;
22929;SDS011;11630;42.660;23.292;2023-02-27T15:03:16;14.50;;;9.80;;
22929;SDS011;11630;42.660;23.292;2023-02-27T15:05:52;8.80;;;6.77;;
22929;SDS011;11630;42.660;23.292;2023-02-27T15:08:27;12.17;;;7.07;;
22929;SDS011;11630;42.660;23.292;2023-02-27T15:10:57;18.20;;;7.97;;
22929;SDS011;11630;42.660;23.292;2023-02-27T15:13:31;9.67;;;7.53;;
22929;SDS011;11630;42.660;23.292;2023-02-27T15:18:54;10.47;;;7.60;;
22929;SDS011;11630;42.660;23.292;2023-02-27T15:21:26;17.63;;;10.37;;
22929;SDS011;11630;42.660;23.292;2023-02-27T15:24:17;9.93;;;8.23;;
22929;SDS011;11630;42.660;23.292;2023-02-27T15:26:35;14.07;;;7.50;;
22929;SDS011;11630;42.660;23.292;2023-02-27T15:29:13;13.07;;;8.13;;
22929;SDS011;11630;42.660;23.292;2023-02-27T15:31:41;14.97;;;8.27;;
22929;SDS011;11630;42.660;23.292;2023-02-27T15:34:12;21.23;;;12.17;;
22929;SDS011;11630;42.660;23.292;2023-02-27T15:36:45;22.50;;;9.80;;
22929;SDS011;11630;42.660;23.292;2023-02-27T15:39:17;14.73;;;9.93;;
22929;SDS011;11630;42.660;23.292;2023-02-27T15:41:58;19.43;;;11.60;;
22929;SDS011;11630;42.660;23.292;2023-02-27T15:44:44;18.30;;;12.30;;
22929;SDS011;11630;42.660;23.292;2023-02-27T15:47:22;17.07;;;10.40;;
22929;SDS011;11630;42.660;23.292;2023-02-27T15:50:08;25.80;;;13.97;;
22929;SDS011;11630;42.660;23.292;2023-02-27T15:52:42;14.83;;;10.37;;
22929;SDS011;11630;42.660;23.292;2023-02-27T15:55:15;15.10;;;11.10;;
22929;SDS011;11630;42.660;23.292;2023-02-27T15:57:45;16.90;;;10.47;;
22929;SDS011;11630;42.660;23.292;2023-02-27T16:00:17;16.70;;;10.50;;
22929;SDS011;11630;42.660;23.292;2023-02-27T16:02:50;18.93;;;11.93;;
22929;SDS011;11630;42.660;23.292;2023-02-27T16:05:25;16.27;;;11.60;;
22929;SDS011;11630;42.660;23.292;2023-02-27T16:07:58;15.93;;;11.30;;
22929;SDS011;11630;42.660;23.292;2023-02-27T16:10:29;18.37;;;11.93;;
22929;SDS011;11630;42.660;23.292;2023-02-27T16:16:04;16.57;;;11.77;;
22929;SDS011;11630;42.660;23.292;2023-02-27T16:18:37;18.80;;;11.27;;
22929;SDS011;11630;42.660;23.292;2023-02-27T16:21:14;19.80;;;11.20;;
22929;SDS011;11630;42.660;23.292;2023-02-27T16:23:47;18.07;;;13.07;;
22929;SDS011;11630;42.660;23.292;2023-02-27T16:28:59;15.20;;;10.67;;
22929;SDS011;11630;42.660;23.292;2023-02-27T16:31:33;14.47;;;11.07;;
22929;SDS011;11630;42.660;23.292;2023-02-27T16:36:56;18.07;;;11.67;;
22929;SDS011;11630;42.660;23.292;2023-02-27T16:39:30;17.17;;;12.40;;
22929;SDS011;11630;42.660;23.292;2023-02-27T16:42:00;21.27;;;12.67;;
22929;SDS011;11630;42.660;23.292;2023-02-27T16:44:31;16.10;;;12.57;;
22929;SDS011;11630;42.660;23.292;2023-02-27T16:47:02;14.93;;;12.07;;
22929;SDS011;11630;42.660;23.292;2023-02-27T16:49:32;18.90;;;13.27;;
22929;SDS011;11630;42.660;23.292;2023-02-27T16:52:06;18.53;;;12.43;;
22929;SDS011;11630;42.660;23.292;2023-02-27T16:54:37;19.03;;;12.47;;
22929;SDS011;11630;42.660;23.292;2023-02-27T16:57:08;18.43;;;12.20;;
22929;SDS011;11630;42.660;23.292;2023-02-27T16:59:39;17.93;;;11.93;;
22929;SDS011;11630;42.660;23.292;2023-02-27T17:02:11;19.40;;;13.13;;
22929;SDS011;11630;42.660;23.292;2023-02-27T17:04:41;17.67;;;13.07;;
22929;SDS011;11630;42.660;23.292;2023-02-27T17:07:13;23.40;;;15.17;;
22929;SDS011;11630;42.660;23.292;2023-02-27T17:09:45;23.23;;;15.73;;
22929;SDS011;11630;42.660;23.292;2023-02-27T17:12:16;23.03;;;15.80;;
22929;SDS011;11630;42.660;23.292;2023-02-27T17:14:47;25.60;;;16.53;;
22929;SDS011;11630;42.660;23.292;2023-02-27T17:17:18;24.53;;;16.77;;
22929;SDS011;11630;42.660;23.292;2023-02-27T17:19:48;27.60;;;17.50;;
22929;SDS011;11630;42.660;23.292;2023-02-27T17:22:19;28.40;;;17.53;;
22929;SDS011;11630;42.660;23.292;2023-02-27T17:24:49;27.97;;;17.23;;
22929;SDS011;11630;42.660;23.292;2023-02-27T17:27:20;28.63;;;18.33;;